createdAt,value
2022-08-23T00:02:22.837Z,1.50
2022-08-23T00:04:53.244Z,1.70
2022-08-23T00:07:38.261Z,1.60
2022-08-23T00:10:06.081Z,1.37
2022-08-23T00:12:33.112Z,1.60
2022-08-23T00:14:59.688Z,1.60
2022-08-23T00:17:34.299Z,1.50
2022-08-23T00:20:11.590Z,1.47
2022-08-23T00:22:38.285Z,1.60
2022-08-23T00:25:09.254Z,1.87
2022-08-23T00:27:35.900Z,1.57
2022-08-23T00:30:02.850Z,1.50
2022-08-23T00:32:31.868Z,1.60
2022-08-23T00:34:59.565Z,1.67
2022-08-23T00:37:26.384Z,1.50
2022-08-23T00:39:53.078Z,1.40
2022-08-23T00:42:56.194Z,1.50
2022-08-23T00:46:16.993Z,1.40
2022-08-23T00:48:43.560Z,1.60
2022-08-23T00:51:23.716Z,1.63
2022-08-23T00:53:52.523Z,1.57
2022-08-23T00:56:20.410Z,1.60
2022-08-23T00:58:47.063Z,1.80
2022-08-23T01:01:14.425Z,1.50
2022-08-23T01:03:43.205Z,1.47
2022-08-23T01:06:19.622Z,1.67
2022-08-23T01:08:51.249Z,1.60
2022-08-23T01:11:23.824Z,1.60
2022-08-23T01:13:57.369Z,1.53
2022-08-23T01:16:36.896Z,1.70
2022-08-23T01:19:03.953Z,1.57
2022-08-23T01:21:33.670Z,1.50
2022-08-23T01:24:03.415Z,1.50
2022-08-23T01:26:34.977Z,1.67
2022-08-23T01:29:03.047Z,1.50
2022-08-23T01:31:29.709Z,1.30
2022-08-23T01:34:02.289Z,1.60
2022-08-23T01:36:29.092Z,1.60
2022-08-23T01:38:55.867Z,1.37
2022-08-23T01:41:22.460Z,1.40
2022-08-23T01:43:49.145Z,1.60
2022-08-23T01:46:18.106Z,1.60
2022-08-23T01:48:46.228Z,1.53
2022-08-23T01:51:14.385Z,1.50
2022-08-23T02:42:53.881Z,1.60
2022-08-23T02:45:21.390Z,1.60
2022-08-23T02:47:48.064Z,1.70
2022-08-23T02:50:14.618Z,1.40
2022-08-23T02:52:41.178Z,1.50
2022-08-23T02:55:08.235Z,1.40
2022-08-23T02:57:34.790Z,1.57
2022-08-23T03:00:01.378Z,1.40
2022-08-23T03:02:29.984Z,1.57
2022-08-23T03:04:56.594Z,1.57
2022-08-23T03:07:23.160Z,1.50
2022-08-23T03:09:49.792Z,1.43
2022-08-23T03:12:16.392Z,1.50
2022-08-23T03:14:42.951Z,1.60
2022-08-23T03:17:09.481Z,1.40
2022-08-23T03:19:36.060Z,1.50
2022-08-23T03:24:36.684Z,1.50
2022-08-23T03:27:04.014Z,1.53
2022-08-23T03:29:31.867Z,1.60
2022-08-23T03:31:59.200Z,1.50
2022-08-23T03:34:25.784Z,1.40
2022-08-23T03:36:52.432Z,1.60
2022-08-23T03:39:18.973Z,1.40
2022-08-23T03:41:45.533Z,1.70
2022-08-23T03:44:12.056Z,1.80
2022-08-23T03:46:38.619Z,1.33
2022-08-23T03:49:05.227Z,1.50
2022-08-23T03:51:31.832Z,1.50
2022-08-23T03:53:58.444Z,1.57
2022-08-23T03:56:28.433Z,1.43
2022-08-23T03:58:55.209Z,1.30
2022-08-23T04:01:26.527Z,1.70
2022-08-23T04:03:55.228Z,1.50
2022-08-23T04:06:21.765Z,1.60
2022-08-23T04:08:48.361Z,1.60
2022-08-23T04:11:15.332Z,1.40
2022-08-23T04:13:42.345Z,1.60
2022-08-23T04:16:09.176Z,1.50
2022-08-23T04:18:36.710Z,1.47
2022-08-23T04:21:07.341Z,1.27
2022-08-23T04:23:33.906Z,1.60
2022-08-23T04:26:00.437Z,1.50
2022-08-23T04:28:28.440Z,1.60
2022-08-23T04:30:55.323Z,1.30
2022-08-23T04:33:22.368Z,1.50
2022-08-23T04:35:48.893Z,1.30
2022-08-23T04:38:24.304Z,1.53
2022-08-23T04:41:11.324Z,1.70
2022-08-23T04:43:38.531Z,2.63
2022-08-23T04:46:05.658Z,2.60
2022-08-23T04:48:33.308Z,3.33
2022-08-23T04:50:59.910Z,3.23
2022-08-23T04:53:26.556Z,3.43
2022-08-23T04:55:53.109Z,3.10
2022-08-23T04:58:19.637Z,3.10
2022-08-23T05:00:51.502Z,3.33
2022-08-23T05:03:18.454Z,3.20
2022-08-23T05:05:45.005Z,3.40
2022-08-23T05:08:11.597Z,3.20
2022-08-23T05:10:38.235Z,3.70
2022-08-23T05:13:04.793Z,3.10
2022-08-23T05:15:31.364Z,3.60
2022-08-23T05:17:57.993Z,3.37
2022-08-23T05:20:24.575Z,3.50
2022-08-23T05:22:51.365Z,3.30
2022-08-23T05:25:18.008Z,3.80
2022-08-23T05:27:44.517Z,3.97
2022-08-23T05:30:15.277Z,3.80
2022-08-23T05:32:42.176Z,3.53
2022-08-23T05:35:09.081Z,3.67
2022-08-23T05:37:35.609Z,3.50
2022-08-23T05:40:02.427Z,3.57
2022-08-23T05:42:29.024Z,3.50
2022-08-23T05:44:55.673Z,3.13
2022-08-23T05:47:24.998Z,3.27
2022-08-23T05:49:51.809Z,3.33
2022-08-23T05:52:18.340Z,3.17
2022-08-23T05:54:45.063Z,3.40
2022-08-23T05:57:11.636Z,3.80
2022-08-23T05:59:38.243Z,3.60
2022-08-23T06:02:04.854Z,2.97
2022-08-23T06:04:31.433Z,3.50
2022-08-23T06:06:58.940Z,3.30
2022-08-23T06:09:25.687Z,3.80
2022-08-23T06:11:52.705Z,3.80
2022-08-23T06:14:19.351Z,3.90
2022-08-23T06:16:53.625Z,3.97
2022-08-23T06:19:22.835Z,3.87
2022-08-23T06:21:49.518Z,3.40
2022-08-23T06:24:16.110Z,3.30
2022-08-23T06:26:43.495Z,3.17
2022-08-23T06:29:11.840Z,3.60
2022-08-23T06:31:47.305Z,3.60
2022-08-23T06:34:29.533Z,3.00
2022-08-23T06:36:57.752Z,3.30
2022-08-23T06:39:26.599Z,3.37
2022-08-23T06:41:53.270Z,2.90
2022-08-23T06:44:19.920Z,3.50
2022-08-23T06:46:48.009Z,3.40
2022-08-23T06:49:14.643Z,3.10
2022-08-23T06:51:46.723Z,3.00
2022-08-23T06:54:14.207Z,2.87
2022-08-23T06:56:41.097Z,3.40
2022-08-23T06:59:07.763Z,2.97
2022-08-23T07:01:45.590Z,2.80
2022-08-23T07:04:14.153Z,3.10
2022-08-23T07:06:40.852Z,3.27
2022-08-23T07:09:07.417Z,2.83
2022-08-23T07:11:33.965Z,2.50
2022-08-23T07:14:01.244Z,2.77
2022-08-23T07:16:57.745Z,3.00
2022-08-23T07:19:30.058Z,3.03
2022-08-23T07:21:57.635Z,2.60
2022-08-23T07:24:27.221Z,2.83
2022-08-23T07:26:57.341Z,3.20
2022-08-23T07:29:23.921Z,3.10
2022-08-23T07:31:53.349Z,3.60
2022-08-23T07:34:20.918Z,3.30
2022-08-23T07:36:48.173Z,3.33
2022-08-23T07:39:15.017Z,3.53
2022-08-23T07:41:41.951Z,3.13
2022-08-23T07:44:09.429Z,2.90
2022-08-23T07:46:37.497Z,3.10
2022-08-23T07:49:04.305Z,3.10
2022-08-23T07:51:31.537Z,3.10
2022-08-23T07:53:58.149Z,3.13
2022-08-23T07:56:25.034Z,3.10
2022-08-23T07:58:51.592Z,3.37
2022-08-23T08:01:20.348Z,3.30
2022-08-23T08:03:48.533Z,3.07
2022-08-23T08:06:18.855Z,3.13
2022-08-23T08:08:45.516Z,3.17
2022-08-23T08:11:12.744Z,3.17
2022-08-23T08:13:43.116Z,3.23
2022-08-23T08:16:09.866Z,3.17
2022-08-23T08:18:36.995Z,2.90
2022-08-23T08:21:06.651Z,2.97
2022-08-23T08:23:34.379Z,3.00
2022-08-23T08:26:02.430Z,3.00
2022-08-23T08:28:29.048Z,3.10
2022-08-23T08:30:55.695Z,3.03
2022-08-23T08:33:22.244Z,3.23
2022-08-23T08:36:00.262Z,3.20
2022-08-23T08:38:30.789Z,3.03
2022-08-23T08:41:16.075Z,2.77
2022-08-23T08:43:58.001Z,3.13
2022-08-23T08:46:39.171Z,2.97
2022-08-23T08:49:05.949Z,3.00
2022-08-23T08:51:48.053Z,2.73
2022-08-23T08:54:16.549Z,2.87
2022-08-23T08:56:43.153Z,2.83
2022-08-23T08:59:24.501Z,2.87
2022-08-23T09:01:51.500Z,2.67
2022-08-23T09:04:18.199Z,2.70
2022-08-23T09:06:47.520Z,3.20
2022-08-23T09:09:48.222Z,2.77
2022-08-23T09:12:21.097Z,2.60
2022-08-23T09:15:12.977Z,2.60
2022-08-23T09:17:59.755Z,3.03
2022-08-23T09:20:32.964Z,3.00
2022-08-23T09:23:15.266Z,2.70
2022-08-23T09:25:41.983Z,2.70
2022-08-23T09:28:08.680Z,2.83
2022-08-23T09:30:53.106Z,2.90
2022-08-23T09:33:21.853Z,2.70
2022-08-23T09:36:14.963Z,2.53
2022-08-23T09:39:01.893Z,2.80
2022-08-23T09:41:41.049Z,2.80
2022-08-23T09:44:09.589Z,2.67
2022-08-23T09:46:39.092Z,3.00
2022-08-23T09:49:34.899Z,2.63
2022-08-23T09:52:32.245Z,2.63
2022-08-23T09:55:02.656Z,2.70
2022-08-23T09:57:30.616Z,2.60
2022-08-23T10:00:18.467Z,2.83
2022-08-23T10:02:45.033Z,2.47
2022-08-23T10:05:29.805Z,2.40
2022-08-23T10:08:00.632Z,2.67
2022-08-23T10:10:37.614Z,2.60
2022-08-23T10:13:04.468Z,2.60
2022-08-23T10:15:40.340Z,2.30
2022-08-23T10:18:33.352Z,2.67
2022-08-23T10:21:21.150Z,2.70
2022-08-23T10:23:50.355Z,2.50
2022-08-23T10:26:39.380Z,2.70
2022-08-23T10:29:35.346Z,2.70
2022-08-23T10:32:22.044Z,2.63
2022-08-23T10:34:51.156Z,2.67
2022-08-23T10:37:39.577Z,2.60
2022-08-23T10:40:25.939Z,2.47
2022-08-23T10:42:53.306Z,2.53
2022-08-23T10:45:22.641Z,2.70
2022-08-23T10:48:05.553Z,2.63
2022-08-23T10:50:43.634Z,2.47
2022-08-23T10:53:22.198Z,2.50
2022-08-23T10:56:03.304Z,2.00
2022-08-23T10:58:41.115Z,2.40
2022-08-23T11:01:08.146Z,2.53
2022-08-23T11:03:47.725Z,2.20
2022-08-23T11:06:37.870Z,2.30
2022-08-23T11:09:04.316Z,2.10
2022-08-23T11:11:49.261Z,2.23
2022-08-23T11:14:42.879Z,2.20
2022-08-23T11:17:12.596Z,2.10
2022-08-23T11:20:09.880Z,2.37
2022-08-23T11:22:58.308Z,2.30
2022-08-23T11:25:24.717Z,2.23
2022-08-23T11:27:51.337Z,2.37
2022-08-23T11:30:33.236Z,2.57
2022-08-23T11:33:10.349Z,2.50
2022-08-23T11:35:50.068Z,2.57
2022-08-23T11:38:22.460Z,2.53
2022-08-23T11:40:52.302Z,2.70
2022-08-23T11:43:36.676Z,2.57
2022-08-23T11:46:36.297Z,2.97
2022-08-23T11:49:30.902Z,2.87
2022-08-23T11:52:37.057Z,2.93
2022-08-23T11:55:24.620Z,2.67
2022-08-23T11:57:57.105Z,2.70
2022-08-23T12:00:53.178Z,2.53
2022-08-23T12:03:34.172Z,3.00
2022-08-23T12:06:03.765Z,2.70
2022-08-23T12:08:46.592Z,2.57
2022-08-23T12:11:13.676Z,2.67
2022-08-23T12:13:48.012Z,2.50
2022-08-23T12:16:16.430Z,2.70
2022-08-23T12:18:47.552Z,2.50
2022-08-23T12:21:19.380Z,2.53
2022-08-23T12:23:57.352Z,2.50
2022-08-23T12:26:59.090Z,2.80
2022-08-23T12:29:37.297Z,3.00
2022-08-23T12:32:27.182Z,3.00
2022-08-23T12:35:13.511Z,3.13
2022-08-23T12:38:07.500Z,2.90
2022-08-23T12:40:43.505Z,2.37
2022-08-23T12:43:22.305Z,2.60
2022-08-23T12:45:57.756Z,2.80
2022-08-23T12:48:27.029Z,3.00
2022-08-23T12:51:11.553Z,2.83
2022-08-23T12:53:44.512Z,2.60
2022-08-23T12:56:17.425Z,2.37
2022-08-23T12:58:58.518Z,2.40
2022-08-23T13:01:29.863Z,2.63
2022-08-23T13:04:02.744Z,2.40
2022-08-23T13:06:33.414Z,2.93
2022-08-23T13:09:16.716Z,2.80
2022-08-23T13:11:43.412Z,2.67
2022-08-23T13:14:42.304Z,2.43
2022-08-23T13:17:14.662Z,2.40
2022-08-23T13:19:41.342Z,2.47
2022-08-23T13:22:22.829Z,2.40
2022-08-23T13:25:28.070Z,2.40
2022-08-23T13:27:53.507Z,2.27
2022-08-23T13:30:23.104Z,2.50
2022-08-23T13:32:51.159Z,2.70
2022-08-23T13:35:23.675Z,2.37
2022-08-23T13:37:50.649Z,2.50
2022-08-23T13:40:22.849Z,2.60
2022-08-23T13:42:53.163Z,2.53
2022-08-23T13:45:24.653Z,2.30
2022-08-23T13:47:55.125Z,2.60
2022-08-23T13:50:40.022Z,2.33
2022-08-23T13:53:23.670Z,2.20
2022-08-23T13:55:54.946Z,2.30
2022-08-23T13:58:27.589Z,2.30
2022-08-23T14:00:55.762Z,2.30
2022-08-23T14:03:23.500Z,2.60
2022-08-23T14:05:50.079Z,2.77
2022-08-23T14:08:16.656Z,3.03
2022-08-23T14:10:43.235Z,2.90
2022-08-23T14:13:11.237Z,2.70
2022-08-23T14:18:24.980Z,3.07
2022-08-23T14:20:52.107Z,2.80
2022-08-23T14:23:18.981Z,2.70
2022-08-23T14:25:45.782Z,2.63
2022-08-23T14:28:12.700Z,2.40
2022-08-23T14:30:39.512Z,2.90
2022-08-23T14:33:06.367Z,2.90
2022-08-23T14:35:33.019Z,2.60
2022-08-23T14:38:03.218Z,2.90
2022-08-23T14:40:30.525Z,2.73
2022-08-23T14:42:57.212Z,2.50
2022-08-23T14:45:23.928Z,2.50
2022-08-23T14:47:50.527Z,2.60
2022-08-23T14:50:17.079Z,2.80
2022-08-23T14:52:45.773Z,2.50
2022-08-23T14:55:12.556Z,2.70
2022-08-23T14:57:39.256Z,2.20
2022-08-23T15:00:07.205Z,2.63
2022-08-23T15:02:36.367Z,2.80
2022-08-23T15:05:03.343Z,2.90
2022-08-23T15:07:29.864Z,2.63
2022-08-23T15:09:56.431Z,2.53
2022-08-23T15:15:12.740Z,2.60
2022-08-23T15:17:48.433Z,2.50
2022-08-23T15:20:15.381Z,2.40
2022-08-23T15:22:45.134Z,2.40
2022-08-23T15:25:29.626Z,2.60
2022-08-23T15:27:56.203Z,2.27
2022-08-23T15:30:23.496Z,2.67
2022-08-23T15:32:52.751Z,2.60
2022-08-23T15:35:23.431Z,2.30
2022-08-23T15:37:49.969Z,2.53
2022-08-23T15:40:16.714Z,2.60
2022-08-23T15:42:43.312Z,2.30
2022-08-23T15:45:10.344Z,2.00
2022-08-23T15:48:01.755Z,2.03
2022-08-23T15:50:30.992Z,2.40
2022-08-23T15:52:57.783Z,2.40
2022-08-23T15:55:24.856Z,2.40
2022-08-23T15:57:52.359Z,2.50
2022-08-23T16:00:20.051Z,2.40
2022-08-23T16:03:14.424Z,2.30
2022-08-23T16:05:33.178Z,2.30
2022-08-23T16:07:59.748Z,2.43
2022-08-23T16:10:28.390Z,2.40
2022-08-23T16:12:55.331Z,2.00
2022-08-23T16:15:22.178Z,2.67
2022-08-23T16:17:48.713Z,2.40
2022-08-23T16:20:15.280Z,2.13
2022-08-23T16:22:41.882Z,2.70
2022-08-23T16:25:08.886Z,2.40
2022-08-23T16:27:35.560Z,2.20
2022-08-23T16:30:03.082Z,2.20
2022-08-23T16:32:29.620Z,2.37
2022-08-23T16:34:56.168Z,2.43
2022-08-23T16:37:22.692Z,2.00
2022-08-23T16:39:49.493Z,2.53
2022-08-23T16:42:16.124Z,2.33
2022-08-23T16:44:42.864Z,2.37
2022-08-23T16:47:09.928Z,2.33
2022-08-23T16:49:37.115Z,2.00
2022-08-23T16:52:03.928Z,2.13
2022-08-23T16:54:30.499Z,2.03
2022-08-23T16:56:57.029Z,2.20
2022-08-23T16:59:23.631Z,1.80
2022-08-23T17:01:56.199Z,1.70
2022-08-23T17:04:24.698Z,2.20
2022-08-23T17:06:57.212Z,1.80
2022-08-23T17:09:24.780Z,1.83
2022-08-23T17:11:51.433Z,1.93
2022-08-23T17:14:17.972Z,1.80
2022-08-23T17:16:44.651Z,1.57
2022-08-23T17:19:12.008Z,2.37
2022-08-23T17:21:38.613Z,1.63
2022-08-23T17:24:05.322Z,1.90
2022-08-23T17:26:31.899Z,1.60
2022-08-23T17:28:58.480Z,1.90
2022-08-23T17:31:25.560Z,1.80
2022-08-23T17:33:52.163Z,1.60
2022-08-23T17:36:29.573Z,1.70
2022-08-23T17:38:57.208Z,1.63
2022-08-23T17:41:24.881Z,1.83
2022-08-23T17:43:51.491Z,1.60
2022-08-23T17:46:18.938Z,1.60
2022-08-23T17:48:45.572Z,1.67
2022-08-23T17:51:12.171Z,1.47
2022-08-23T17:53:38.715Z,1.67
2022-08-23T17:56:05.839Z,1.77
2022-08-23T17:58:36.807Z,1.70
2022-08-23T18:01:04.768Z,1.73
2022-08-23T18:03:31.774Z,1.57
2022-08-23T18:05:58.624Z,1.57
2022-08-23T18:08:25.215Z,1.53
2022-08-23T18:10:51.774Z,1.37
2022-08-23T18:13:18.299Z,1.47
2022-08-23T18:15:45.283Z,1.80
2022-08-23T18:18:11.815Z,1.30
2022-08-23T18:20:38.388Z,1.60
2022-08-23T18:23:04.968Z,1.63
2022-08-23T18:25:31.614Z,1.20
2022-08-23T18:28:08.167Z,1.47
2022-08-23T18:30:35.360Z,1.80
2022-08-23T18:33:02.123Z,1.80
2022-08-23T18:35:32.597Z,1.97
2022-08-23T18:37:59.174Z,1.87
2022-08-23T18:40:27.288Z,1.70
2022-08-23T18:42:53.898Z,1.90
2022-08-23T18:45:20.822Z,1.90
2022-08-23T18:47:48.579Z,1.57
2022-08-23T18:50:16.026Z,1.90
2022-08-23T18:52:42.636Z,1.80
2022-08-23T18:55:09.586Z,1.80
2022-08-23T18:57:36.143Z,1.83
2022-08-23T19:00:04.402Z,1.60
2022-08-23T19:02:31.069Z,1.60
2022-08-23T19:04:57.735Z,1.67
2022-08-23T19:07:24.295Z,1.70
2022-08-23T19:09:50.824Z,1.70
2022-08-23T19:12:17.554Z,1.77
2022-08-23T19:14:44.152Z,1.60
2022-08-23T19:17:10.752Z,1.50
2022-08-23T19:19:37.307Z,1.80
2022-08-23T19:22:04.415Z,1.60
2022-08-23T19:24:30.995Z,1.37
2022-08-23T19:26:57.588Z,1.87
2022-08-23T19:29:24.111Z,1.60
2022-08-23T19:31:50.740Z,1.50
2022-08-23T19:34:18.327Z,1.57
2022-08-23T19:36:50.330Z,1.63
2022-08-23T19:39:24.583Z,1.50
2022-08-23T19:41:51.152Z,1.50
2022-08-23T19:44:17.994Z,1.40
2022-08-23T19:46:44.764Z,1.73
2022-08-23T19:49:11.964Z,1.87
2022-08-23T19:51:38.777Z,1.90
2022-08-23T19:54:10.903Z,1.80
2022-08-23T19:56:38.984Z,1.60
2022-08-23T19:59:06.399Z,1.80
2022-08-23T20:01:32.995Z,1.50
2022-08-23T20:03:59.567Z,1.80
2022-08-23T20:06:26.784Z,1.70
2022-08-23T20:08:53.390Z,1.80
2022-08-23T20:11:20.375Z,1.53
2022-08-23T20:13:48.199Z,1.70
2022-08-23T20:16:15.081Z,1.70
2022-08-23T20:18:42.340Z,1.70
2022-08-23T20:21:08.904Z,1.63
2022-08-23T20:23:53.987Z,1.50
2022-08-23T20:26:20.543Z,1.97
2022-08-23T20:28:59.414Z,1.63
2022-08-23T20:31:29.344Z,1.70
2022-08-23T20:33:56.294Z,1.60
2022-08-23T20:36:22.923Z,1.53
2022-08-23T20:38:49.513Z,1.53
2022-08-23T20:41:16.923Z,1.60
2022-08-23T20:43:43.944Z,1.40
2022-08-23T20:46:10.557Z,1.60
2022-08-23T20:48:37.171Z,1.60
2022-08-23T20:51:05.762Z,1.70
2022-08-23T20:53:33.077Z,1.47
2022-08-23T20:55:59.653Z,1.73
2022-08-23T20:58:26.344Z,1.60
2022-08-23T21:00:53.021Z,1.53
2022-08-23T21:03:19.608Z,1.80
2022-08-23T21:05:46.156Z,1.43
2022-08-23T21:08:15.272Z,1.60
2022-08-23T21:10:44.898Z,1.63
2022-08-23T21:13:11.982Z,1.50
2022-08-23T21:15:38.551Z,1.60
2022-08-23T21:18:05.107Z,1.50
2022-08-23T21:20:31.696Z,1.70
2022-08-23T21:22:58.339Z,1.53
2022-08-23T21:25:24.916Z,1.60
2022-08-23T21:27:51.441Z,1.70
2022-08-23T21:30:17.992Z,1.73
2022-08-23T21:32:44.545Z,1.60
2022-08-23T21:35:11.456Z,1.60
2022-08-23T21:37:38.176Z,1.70
2022-08-23T21:40:05.365Z,1.70
2022-08-23T21:42:32.000Z,1.50
2022-08-23T21:44:58.599Z,1.60
2022-08-23T21:47:26.060Z,1.63
2022-08-23T21:49:53.293Z,1.57
2022-08-23T21:52:19.926Z,2.00
2022-08-23T21:54:46.512Z,1.37
2022-08-23T21:57:13.046Z,1.60
2022-08-23T21:59:39.634Z,1.33
2022-08-23T22:02:06.184Z,1.50
2022-08-23T22:04:32.764Z,1.70
2022-08-23T22:07:00.137Z,1.60
2022-08-23T22:09:31.327Z,1.37
2022-08-23T22:11:58.713Z,1.60
2022-08-23T22:14:25.561Z,1.50
2022-08-23T22:16:58.172Z,1.57
2022-08-23T22:19:24.718Z,1.40
2022-08-23T22:21:54.280Z,1.57
2022-08-23T22:24:25.565Z,1.67
2022-08-23T22:26:52.807Z,1.37
2022-08-23T22:29:19.405Z,1.60
2022-08-23T22:31:47.791Z,1.40
2022-08-23T22:34:14.351Z,1.90
2022-08-23T22:36:41.867Z,1.40
2022-08-23T22:39:08.433Z,1.53
2022-08-23T22:41:35.012Z,1.40
2022-08-23T22:44:02.741Z,1.80
2022-08-23T22:46:30.341Z,1.30
2022-08-23T22:48:57.001Z,1.70
2022-08-23T22:51:25.553Z,1.50
2022-08-23T22:53:53.739Z,1.63
2022-08-23T22:56:33.274Z,1.50
2022-08-23T22:58:59.861Z,1.60
2022-08-23T23:02:04.181Z,1.50
2022-08-23T23:04:31.140Z,1.70
2022-08-23T23:06:58.025Z,1.57
2022-08-23T23:09:24.762Z,1.50
2022-08-23T23:11:51.914Z,1.73
2022-08-23T23:14:18.890Z,1.50
2022-08-23T23:16:45.640Z,1.50
2022-08-23T23:19:30.877Z,1.40
2022-08-23T23:21:57.665Z,1.57
2022-08-23T23:24:26.549Z,1.60
2022-08-23T23:26:53.148Z,1.57
2022-08-23T23:29:19.765Z,1.40
2022-08-23T23:31:46.300Z,1.60
2022-08-23T23:34:12.886Z,1.50
2022-08-23T23:36:39.520Z,1.47
2022-08-23T23:39:06.810Z,1.40
2022-08-23T23:41:33.354Z,1.60
2022-08-23T23:44:00.098Z,1.47
2022-08-23T23:46:26.938Z,1.60
2022-08-23T23:48:53.561Z,1.60
2022-08-23T23:51:24.930Z,1.40
2022-08-23T23:53:52.406Z,1.60
2022-08-23T23:56:19.342Z,1.50
2022-08-23T23:58:46.330Z,1.80
